Aviation Digital Data Service (ADDS)

Output produced by TAFs form (2346 UTC 18 July 2018)
found at http://www.aviationweather.gov/adds/tafs/
 
RJTT 182330Z 18011KT 9999 FEW015 30/26 Q1011 NOSIG RMK 1CU015 A2986
TAF RJTT 182305Z 1900/2006 17017KT 9999 FEW025
       
RJOO 182328Z 09005KT 040V130 CAVOK 32/20 Q1011 RMK A2986
TAF RJOO 182308Z 1900/2006 22005KT 9999 FEW030 
     BECMG 1908/1910 32005KT 
     BECMG 1918/1921 07004KT
       
RJAA 182330Z 22004KT 160V260 9999 FEW020 30/26 Q1011 NOSIG RMK 1CU020 A2987
TAF RJAA 182306Z 1900/2006 18006KT 9999 FEW025
       
RJBB 182330Z 27003KT 9000 NSC 30/24 Q1011 NOSIG
TAF RJBB 182309Z 1900/2006 26006KT 9999 FEW030
       
RJCC 182330Z 17009KT 5000 BR FEW003 SCT004 BKN005 18/17 Q1012 RMK 1ST003 4ST004 7ST005 A2991
TAF RJCC 182307Z 1900/2006 17013KT 9999 FEW006 BKN015 
     TEMPO 1900/1906 FEW003 BKN006 
     TEMPO 1906/1909 1500 BR FEW001 BKN003 
     TEMPO 1909/1921 0700 -SHRA FG VV001 
     TEMPO 1921/2000 1500 -SHRA BR FEW001 BKN003 
     TEMPO 2000/2006 FEW003 BKN005
       
RJGG 182330Z 10003KT 020V150 8000 FEW020 30/25 Q1011 NOSIG
TAF RJGG 182309Z 1900/2006 14004KT 7000 FEW015 
     BECMG 1905/1907 16014KT
       
RJFF 182330Z VRB02KT 9000 NSC 30/22 Q1011 RMK A2985
TAF RJFF 182306Z 1900/2006 32012KT 9999 FEW035 
     BECMG 1910/1912 14004KT 
     BECMG 2000/2003 02006KT
       
ROAH 182330Z 06009KT 9999 VCSH FEW015 SCT020 BKN/// 29/24 Q1007
TAF ROAH 182305Z 1900/2006 06011KT 9999 FEW015 SCT025 
     TEMPO 2000/2006 SHRA FEW008 BKN015 FEW020CB